sensor_id;sensor_type;location;lat;lon;timestamp;temperature;humidity
52869;DHT22;39100;53.480;6.158;2022-12-18T00:01:02;-2.40;99.90
52869;DHT22;39100;53.480;6.158;2022-12-18T00:03:35;-2.40;99.90
52869;DHT22;39100;53.480;6.158;2022-12-18T00:06:01;-2.40;99.90
52869;DHT22;39100;53.480;6.158;2022-12-18T00:08:27;-2.20;99.90
52869;DHT22;39100;53.480;6.158;2022-12-18T00:10:53;-2.40;99.90
52869;DHT22;39100;53.480;6.158;2022-12-18T00:13:18;-2.40;99.90
52869;DHT22;39100;53.480;6.158;2022-12-18T00:15:44;-2.40;99.90
52869;DHT22;39100;53.480;6.158;2022-12-18T00:18:10;-2.40;99.90
52869;DHT22;39100;53.480;6.158;2022-12-18T00:20:39;-2.40;99.90
52869;DHT22;39100;53.480;6.158;2022-12-18T00:23:05;-2.40;99.90
52869;DHT22;39100;53.480;6.158;2022-12-18T00:25:35;-2.40;99.90
52869;DHT22;39100;53.480;6.158;2022-12-18T00:28:02;-2.40;99.90
52869;DHT22;39100;53.480;6.158;2022-12-18T00:30:27;-2.40;99.90
52869;DHT22;39100;53.480;6.158;2022-12-18T00:32:53;-2.40;99.90
52869;DHT22;39100;53.480;6.158;2022-12-18T00:35:18;-2.40;99.90
52869;DHT22;39100;53.480;6.158;2022-12-18T00:37:44;-2.40;99.90
52869;DHT22;39100;53.480;6.158;2022-12-18T00:40:10;-2.40;99.90
52869;DHT22;39100;53.480;6.158;2022-12-18T00:42:36;-2.40;99.90
52869;DHT22;39100;53.480;6.158;2022-12-18T00:45:20;-2.30;99.90
52869;DHT22;39100;53.480;6.158;2022-12-18T00:47:45;-2.40;99.90
52869;DHT22;39100;53.480;6.158;2022-12-18T00:50:11;-2.40;99.90
52869;DHT22;39100;53.480;6.158;2022-12-18T00:52:36;-2.40;99.90
52869;DHT22;39100;53.480;6.158;2022-12-18T00:55:02;-2.40;99.90
52869;DHT22;39100;53.480;6.158;2022-12-18T00:57:28;-2.30;99.90
52869;DHT22;39100;53.480;6.158;2022-12-18T00:59:53;-2.40;99.90
52869;DHT22;39100;53.480;6.158;2022-12-18T01:02:19;-2.40;99.90
52869;DHT22;39100;53.480;6.158;2022-12-18T01:04:44;-2.40;99.90
52869;DHT22;39100;53.480;6.158;2022-12-18T01:07:10;-2.40;99.90
52869;DHT22;39100;53.480;6.158;2022-12-18T01:09:35;-2.40;99.90
52869;DHT22;39100;53.480;6.158;2022-12-18T01:12:01;-2.40;99.90
52869;DHT22;39100;53.480;6.158;2022-12-18T01:14:27;-2.40;99.90
52869;DHT22;39100;53.480;6.158;2022-12-18T01:16:52;-2.40;99.90
52869;DHT22;39100;53.480;6.158;2022-12-18T01:19:18;-2.40;99.90
52869;DHT22;39100;53.480;6.158;2022-12-18T01:21:43;-2.40;99.90
52869;DHT22;39100;53.480;6.158;2022-12-18T01:24:11;-2.30;99.90
52869;DHT22;39100;53.480;6.158;2022-12-18T01:26:37;-2.40;99.90
52869;DHT22;39100;53.480;6.158;2022-12-18T01:29:03;-2.40;99.90
52869;DHT22;39100;53.480;6.158;2022-12-18T01:31:31;-2.30;99.90
52869;DHT22;39100;53.480;6.158;2022-12-18T01:33:57;-2.30;99.90
52869;DHT22;39100;53.480;6.158;2022-12-18T01:36:25;-2.30;99.90
52869;DHT22;39100;53.480;6.158;2022-12-18T01:38:52;-2.30;99.90
52869;DHT22;39100;53.480;6.158;2022-12-18T01:41:24;-2.30;99.90
52869;DHT22;39100;53.480;6.158;2022-12-18T01:43:56;-2.30;99.90
52869;DHT22;39100;53.480;6.158;2022-12-18T01:46:23;-2.30;99.90
52869;DHT22;39100;53.480;6.158;2022-12-18T01:48:52;-2.30;99.90
52869;DHT22;39100;53.480;6.158;2022-12-18T01:51:18;-2.40;99.90
52869;DHT22;39100;53.480;6.158;2022-12-18T01:53:46;-2.40;99.90
52869;DHT22;39100;53.480;6.158;2022-12-18T01:56:20;-2.30;99.90
52869;DHT22;39100;53.480;6.158;2022-12-18T01:59:04;-2.40;99.90
52869;DHT22;39100;53.480;6.158;2022-12-18T02:01:32;-2.40;99.90
52869;DHT22;39100;53.480;6.158;2022-12-18T02:06:51;-2.40;99.90
52869;DHT22;39100;53.480;6.158;2022-12-18T02:09:28;-2.40;99.90
52869;DHT22;39100;53.480;6.158;2022-12-18T02:12:08;-2.40;99.90
52869;DHT22;39100;53.480;6.158;2022-12-18T02:17:19;-2.40;99.90
52869;DHT22;39100;53.480;6.158;2022-12-18T02:22:29;-2.40;99.90
52869;DHT22;39100;53.480;6.158;2022-12-18T02:27:33;-2.50;99.90
52869;DHT22;39100;53.480;6.158;2022-12-18T02:30:02;-2.50;99.90
52869;DHT22;39100;53.480;6.158;2022-12-18T02:32:31;-2.60;99.90
52869;DHT22;39100;53.480;6.158;2022-12-18T02:34:58;-2.60;99.90
52869;DHT22;39100;53.480;6.158;2022-12-18T02:37:26;-2.60;99.90
52869;DHT22;39100;53.480;6.158;2022-12-18T02:39:55;-2.60;99.90
52869;DHT22;39100;53.480;6.158;2022-12-18T02:42:22;-2.60;99.90
52869;DHT22;39100;53.480;6.158;2022-12-18T02:44:50;-2.60;99.90
52869;DHT22;39100;53.480;6.158;2022-12-18T02:47:18;-2.60;99.90
52869;DHT22;39100;53.480;6.158;2022-12-18T02:55:04;-2.60;99.90
52869;DHT22;39100;53.480;6.158;2022-12-18T02:57:58;-2.60;99.90
52869;DHT22;39100;53.480;6.158;2022-12-18T03:00:37;-2.60;99.90
52869;DHT22;39100;53.480;6.158;2022-12-18T03:03:28;-2.60;99.90
52869;DHT22;39100;53.480;6.158;2022-12-18T03:06:04;-2.60;99.90
52869;DHT22;39100;53.480;6.158;2022-12-18T03:08:38;-2.70;99.90
52869;DHT22;39100;53.480;6.158;2022-12-18T03:11:08;-2.60;99.90
52869;DHT22;39100;53.480;6.158;2022-12-18T03:13:36;-2.70;99.90
52869;DHT22;39100;53.480;6.158;2022-12-18T03:16:03;-2.60;99.90
52869;DHT22;39100;53.480;6.158;2022-12-18T03:18:44;-2.60;99.90
52869;DHT22;39100;53.480;6.158;2022-12-18T03:21:14;-2.60;99.90
52869;DHT22;39100;53.480;6.158;2022-12-18T03:23:44;-2.60;99.90
52869;DHT22;39100;53.480;6.158;2022-12-18T03:26:14;-2.70;99.90
52869;DHT22;39100;53.480;6.158;2022-12-18T03:28:46;-2.70;99.90
52869;DHT22;39100;53.480;6.158;2022-12-18T03:31:14;-2.70;99.90
52869;DHT22;39100;53.480;6.158;2022-12-18T03:33:51;-2.70;99.90
52869;DHT22;39100;53.480;6.158;2022-12-18T03:36:18;-2.70;99.90
52869;DHT22;39100;53.480;6.158;2022-12-18T03:38:43;-2.70;99.90
52869;DHT22;39100;53.480;6.158;2022-12-18T03:49:13;-2.70;99.90
52869;DHT22;39100;53.480;6.158;2022-12-18T03:52:01;-2.70;99.90
52869;DHT22;39100;53.480;6.158;2022-12-18T03:54:29;-2.80;99.90
52869;DHT22;39100;53.480;6.158;2022-12-18T03:57:00;-2.80;99.90
52869;DHT22;39100;53.480;6.158;2022-12-18T03:59:29;-2.80;99.90
52869;DHT22;39100;53.480;6.158;2022-12-18T04:01:56;-2.80;99.90
52869;DHT22;39100;53.480;6.158;2022-12-18T04:04:24;-2.80;99.90
52869;DHT22;39100;53.480;6.158;2022-12-18T04:06:51;-2.80;99.90
52869;DHT22;39100;53.480;6.158;2022-12-18T04:09:19;-2.80;99.90
52869;DHT22;39100;53.480;6.158;2022-12-18T04:11:46;-2.80;99.90
52869;DHT22;39100;53.480;6.158;2022-12-18T04:14:12;-2.80;99.90
52869;DHT22;39100;53.480;6.158;2022-12-18T04:16:37;-2.90;99.90
52869;DHT22;39100;53.480;6.158;2022-12-18T04:19:03;-2.90;99.90
52869;DHT22;39100;53.480;6.158;2022-12-18T04:21:29;-2.80;99.90
52869;DHT22;39100;53.480;6.158;2022-12-18T04:23:55;-2.90;99.90
52869;DHT22;39100;53.480;6.158;2022-12-18T04:26:20;-2.90;99.90
52869;DHT22;39100;53.480;6.158;2022-12-18T04:28:46;-2.80;99.90
52869;DHT22;39100;53.480;6.158;2022-12-18T04:31:12;-2.80;99.90
52869;DHT22;39100;53.480;6.158;2022-12-18T04:33:37;-2.80;99.90
52869;DHT22;39100;53.480;6.158;2022-12-18T04:36:03;-2.80;99.90
52869;DHT22;39100;53.480;6.158;2022-12-18T04:38:29;-2.90;99.90
52869;DHT22;39100;53.480;6.158;2022-12-18T04:40:55;-2.90;99.90
52869;DHT22;39100;53.480;6.158;2022-12-18T04:43:20;-2.90;99.90
52869;DHT22;39100;53.480;6.158;2022-12-18T04:45:46;-2.90;99.90
52869;DHT22;39100;53.480;6.158;2022-12-18T04:48:11;-2.90;99.90
52869;DHT22;39100;53.480;6.158;2022-12-18T04:50:37;-2.90;99.90
52869;DHT22;39100;53.480;6.158;2022-12-18T04:53:02;-2.90;99.90
52869;DHT22;39100;53.480;6.158;2022-12-18T04:55:28;-3.00;99.90
52869;DHT22;39100;53.480;6.158;2022-12-18T04:57:54;-3.00;99.90
52869;DHT22;39100;53.480;6.158;2022-12-18T05:00:20;-3.00;99.90
52869;DHT22;39100;53.480;6.158;2022-12-18T05:02:45;-2.80;99.90
52869;DHT22;39100;53.480;6.158;2022-12-18T05:05:11;-2.90;99.90
52869;DHT22;39100;53.480;6.158;2022-12-18T05:07:36;-2.90;99.90
52869;DHT22;39100;53.480;6.158;2022-12-18T05:10:03;-2.90;99.90
52869;DHT22;39100;53.480;6.158;2022-12-18T05:12:29;-2.90;99.90
52869;DHT22;39100;53.480;6.158;2022-12-18T05:14:56;-3.00;99.90
52869;DHT22;39100;53.480;6.158;2022-12-18T05:17:21;-3.00;99.90
52869;DHT22;39100;53.480;6.158;2022-12-18T05:19:47;-3.00;99.90
52869;DHT22;39100;53.480;6.158;2022-12-18T05:22:12;-2.90;99.90
52869;DHT22;39100;53.480;6.158;2022-12-18T05:24:38;-3.00;99.90
52869;DHT22;39100;53.480;6.158;2022-12-18T05:27:03;-3.00;99.90
52869;DHT22;39100;53.480;6.158;2022-12-18T05:29:29;-3.00;99.90
52869;DHT22;39100;53.480;6.158;2022-12-18T05:31:54;-3.00;99.90
52869;DHT22;39100;53.480;6.158;2022-12-18T05:34:20;-3.00;99.90
52869;DHT22;39100;53.480;6.158;2022-12-18T05:36:46;-3.00;99.90
52869;DHT22;39100;53.480;6.158;2022-12-18T05:39:11;-3.00;99.90
52869;DHT22;39100;53.480;6.158;2022-12-18T05:41:37;-3.00;99.90
52869;DHT22;39100;53.480;6.158;2022-12-18T05:44:03;-3.00;99.90
52869;DHT22;39100;53.480;6.158;2022-12-18T05:46:29;-2.90;99.90
52869;DHT22;39100;53.480;6.158;2022-12-18T05:48:55;-2.80;99.90
52869;DHT22;39100;53.480;6.158;2022-12-18T05:51:21;-2.90;99.90
52869;DHT22;39100;53.480;6.158;2022-12-18T05:53:48;-2.90;99.90
52869;DHT22;39100;53.480;6.158;2022-12-18T05:56:20;-2.90;99.90
52869;DHT22;39100;53.480;6.158;2022-12-18T05:58:47;-3.00;99.90
52869;DHT22;39100;53.480;6.158;2022-12-18T06:01:16;-3.00;99.90
52869;DHT22;39100;53.480;6.158;2022-12-18T06:03:42;-3.00;99.90
52869;DHT22;39100;53.480;6.158;2022-12-18T06:06:22;-3.00;99.90
52869;DHT22;39100;53.480;6.158;2022-12-18T06:08:49;-3.00;99.90
52869;DHT22;39100;53.480;6.158;2022-12-18T06:11:24;-3.10;99.90
52869;DHT22;39100;53.480;6.158;2022-12-18T06:13:52;-3.20;99.90
52869;DHT22;39100;53.480;6.158;2022-12-18T06:16:18;-3.20;99.90
52869;DHT22;39100;53.480;6.158;2022-12-18T06:18:43;-3.20;99.90
52869;DHT22;39100;53.480;6.158;2022-12-18T06:21:09;-3.30;99.90
52869;DHT22;39100;53.480;6.158;2022-12-18T06:23:35;-3.30;99.90
52869;DHT22;39100;53.480;6.158;2022-12-18T06:26:08;-3.30;99.90
52869;DHT22;39100;53.480;6.158;2022-12-18T06:28:34;-3.30;99.90
52869;DHT22;39100;53.480;6.158;2022-12-18T06:31:00;-3.20;99.90
52869;DHT22;39100;53.480;6.158;2022-12-18T06:33:27;-3.30;99.90
52869;DHT22;39100;53.480;6.158;2022-12-18T06:35:53;-3.30;99.90
52869;DHT22;39100;53.480;6.158;2022-12-18T06:38:19;-3.30;99.90
52869;DHT22;39100;53.480;6.158;2022-12-18T06:40:45;-3.30;99.90
52869;DHT22;39100;53.480;6.158;2022-12-18T06:43:10;-3.20;99.90
52869;DHT22;39100;53.480;6.158;2022-12-18T06:45:36;-3.20;99.90
52869;DHT22;39100;53.480;6.158;2022-12-18T06:48:01;-3.20;99.90
52869;DHT22;39100;53.480;6.158;2022-12-18T06:50:27;-3.20;99.90
52869;DHT22;39100;53.480;6.158;2022-12-18T06:52:53;-3.10;99.90
52869;DHT22;39100;53.480;6.158;2022-12-18T06:55:18;-3.10;99.90
52869;DHT22;39100;53.480;6.158;2022-12-18T06:57:44;-3.10;99.90
52869;DHT22;39100;53.480;6.158;2022-12-18T07:00:10;-3.00;99.90
52869;DHT22;39100;53.480;6.158;2022-12-18T07:02:36;-3.00;99.90
52869;DHT22;39100;53.480;6.158;2022-12-18T07:05:02;-2.90;99.90
52869;DHT22;39100;53.480;6.158;2022-12-18T07:07:28;-2.90;99.90
52869;DHT22;39100;53.480;6.158;2022-12-18T07:09:53;-2.90;99.90
52869;DHT22;39100;53.480;6.158;2022-12-18T07:12:19;-3.00;99.90
52869;DHT22;39100;53.480;6.158;2022-12-18T07:14:45;-2.90;99.90
52869;DHT22;39100;53.480;6.158;2022-12-18T07:17:10;-3.10;99.90
52869;DHT22;39100;53.480;6.158;2022-12-18T07:19:36;-3.10;99.90
52869;DHT22;39100;53.480;6.158;2022-12-18T07:22:01;-3.10;99.90
52869;DHT22;39100;53.480;6.158;2022-12-18T07:24:27;-3.10;99.90
52869;DHT22;39100;53.480;6.158;2022-12-18T07:26:53;-3.20;99.90
52869;DHT22;39100;53.480;6.158;2022-12-18T07:29:19;-3.20;99.90
52869;DHT22;39100;53.480;6.158;2022-12-18T07:31:45;-3.20;99.90
52869;DHT22;39100;53.480;6.158;2022-12-18T07:34:12;-3.20;99.90
52869;DHT22;39100;53.480;6.158;2022-12-18T07:36:38;-3.20;99.90
52869;DHT22;39100;53.480;6.158;2022-12-18T07:39:03;-3.20;99.90
52869;DHT22;39100;53.480;6.158;2022-12-18T07:41:29;-3.20;99.90
52869;DHT22;39100;53.480;6.158;2022-12-18T07:43:55;-3.20;99.90
52869;DHT22;39100;53.480;6.158;2022-12-18T07:46:20;-3.10;99.90
52869;DHT22;39100;53.480;6.158;2022-12-18T07:48:46;-3.10;99.90
52869;DHT22;39100;53.480;6.158;2022-12-18T07:51:12;-3.10;99.90
52869;DHT22;39100;53.480;6.158;2022-12-18T07:53:37;-3.10;99.90
52869;DHT22;39100;53.480;6.158;2022-12-18T07:56:06;-3.10;99.90
52869;DHT22;39100;53.480;6.158;2022-12-18T07:58:32;-3.10;99.90
52869;DHT22;39100;53.480;6.158;2022-12-18T08:01:08;-3.30;99.90
52869;DHT22;39100;53.480;6.158;2022-12-18T08:03:34;-3.10;99.90
52869;DHT22;39100;53.480;6.158;2022-12-18T08:06:04;-3.00;99.90
52869;DHT22;39100;53.480;6.158;2022-12-18T08:08:32;-3.00;99.90
52869;DHT22;39100;53.480;6.158;2022-12-18T08:10:58;-3.00;99.90
52869;DHT22;39100;53.480;6.158;2022-12-18T08:13:24;-3.00;99.90
52869;DHT22;39100;53.480;6.158;2022-12-18T08:16:01;-3.00;99.90
52869;DHT22;39100;53.480;6.158;2022-12-18T08:18:27;-3.00;99.90
52869;DHT22;39100;53.480;6.158;2022-12-18T08:20:54;-3.00;99.90
52869;DHT22;39100;53.480;6.158;2022-12-18T08:23:20;-3.00;99.90
52869;DHT22;39100;53.480;6.158;2022-12-18T08:25:45;-2.90;99.90
52869;DHT22;39100;53.480;6.158;2022-12-18T08:28:11;-2.90;99.90
52869;DHT22;39100;53.480;6.158;2022-12-18T08:30:37;-2.80;99.90
52869;DHT22;39100;53.480;6.158;2022-12-18T08:33:02;-2.70;99.90
52869;DHT22;39100;53.480;6.158;2022-12-18T08:35:28;-2.60;99.90
52869;DHT22;39100;53.480;6.158;2022-12-18T08:37:53;-2.60;99.90
52869;DHT22;39100;53.480;6.158;2022-12-18T08:40:19;-2.60;99.90
52869;DHT22;39100;53.480;6.158;2022-12-18T08:42:45;-2.60;99.90
52869;DHT22;39100;53.480;6.158;2022-12-18T08:45:29;-2.60;99.90
52869;DHT22;39100;53.480;6.158;2022-12-18T08:47:55;-2.60;99.90
52869;DHT22;39100;53.480;6.158;2022-12-18T08:50:20;-2.60;99.90
52869;DHT22;39100;53.480;6.158;2022-12-18T08:52:46;-2.50;99.90
52869;DHT22;39100;53.480;6.158;2022-12-18T08:55:11;-2.50;99.90
52869;DHT22;39100;53.480;6.158;2022-12-18T08:57:37;-2.50;99.90
52869;DHT22;39100;53.480;6.158;2022-12-18T09:00:04;-2.50;99.90
52869;DHT22;39100;53.480;6.158;2022-12-18T09:02:29;-2.50;99.90
52869;DHT22;39100;53.480;6.158;2022-12-18T09:04:55;-2.30;99.90
52869;DHT22;39100;53.480;6.158;2022-12-18T09:07:20;-2.20;99.90
52869;DHT22;39100;53.480;6.158;2022-12-18T09:09:46;-2.20;99.90
52869;DHT22;39100;53.480;6.158;2022-12-18T09:12:12;-2.10;99.90
52869;DHT22;39100;53.480;6.158;2022-12-18T09:14:37;-2.10;99.90
52869;DHT22;39100;53.480;6.158;2022-12-18T09:17:03;-2.10;99.90
52869;DHT22;39100;53.480;6.158;2022-12-18T09:19:28;-2.00;99.90
52869;DHT22;39100;53.480;6.158;2022-12-18T09:21:54;-2.00;99.90
52869;DHT22;39100;53.480;6.158;2022-12-18T09:24:22;-2.00;99.90
52869;DHT22;39100;53.480;6.158;2022-12-18T09:26:48;-1.90;99.90
52869;DHT22;39100;53.480;6.158;2022-12-18T09:29:15;-1.90;99.90
52869;DHT22;39100;53.480;6.158;2022-12-18T09:31:41;-1.90;99.90
52869;DHT22;39100;53.480;6.158;2022-12-18T09:34:07;-1.90;99.90
52869;DHT22;39100;53.480;6.158;2022-12-18T09:36:33;-1.80;99.90
52869;DHT22;39100;53.480;6.158;2022-12-18T09:38:58;-1.90;99.90
52869;DHT22;39100;53.480;6.158;2022-12-18T09:44:18;-1.80;99.90
52869;DHT22;39100;53.480;6.158;2022-12-18T09:47:07;-1.80;99.90
52869;DHT22;39100;53.480;6.158;2022-12-18T09:49:40;-1.70;99.90
52869;DHT22;39100;53.480;6.158;2022-12-18T09:54:55;-1.70;99.90
52869;DHT22;39100;53.480;6.158;2022-12-18T09:57:23;-1.60;99.90
52869;DHT22;39100;53.480;6.158;2022-12-18T10:00:04;-1.50;99.90
52869;DHT22;39100;53.480;6.158;2022-12-18T10:02:31;-1.30;99.90
52869;DHT22;39100;53.480;6.158;2022-12-18T10:05:11;-1.20;99.90
52869;DHT22;39100;53.480;6.158;2022-12-18T10:08:05;-1.10;99.90
52869;DHT22;39100;53.480;6.158;2022-12-18T10:10:47;-0.90;99.90
52869;DHT22;39100;53.480;6.158;2022-12-18T10:15:59;-0.60;99.90
52869;DHT22;39100;53.480;6.158;2022-12-18T10:21:21;-0.20;99.90
52869;DHT22;39100;53.480;6.158;2022-12-18T10:24:00;-0.10;99.90
52869;DHT22;39100;53.480;6.158;2022-12-18T10:26:28;0.00;99.90
52869;DHT22;39100;53.480;6.158;2022-12-18T10:28:54;0.10;99.90
52869;DHT22;39100;53.480;6.158;2022-12-18T10:31:23;0.10;99.90
52869;DHT22;39100;53.480;6.158;2022-12-18T10:33:49;0.00;99.90
52869;DHT22;39100;53.480;6.158;2022-12-18T10:36:15;-0.10;99.90
52869;DHT22;39100;53.480;6.158;2022-12-18T10:38:41;0.00;99.90
52869;DHT22;39100;53.480;6.158;2022-12-18T10:46:36;-0.10;99.90
52869;DHT22;39100;53.480;6.158;2022-12-18T10:49:02;-0.10;99.90
52869;DHT22;39100;53.480;6.158;2022-12-18T10:51:33;-0.10;99.90
52869;DHT22;39100;53.480;6.158;2022-12-18T10:54:05;-0.10;99.90
52869;DHT22;39100;53.480;6.158;2022-12-18T10:56:33;-0.10;99.90
52869;DHT22;39100;53.480;6.158;2022-12-18T10:59:00;-0.20;99.90
52869;DHT22;39100;53.480;6.158;2022-12-18T11:01:27;-0.20;99.90
52869;DHT22;39100;53.480;6.158;2022-12-18T11:06:21;-0.30;99.90
52869;DHT22;39100;53.480;6.158;2022-12-18T11:09:00;-0.30;99.90
52869;DHT22;39100;53.480;6.158;2022-12-18T11:11:26;-0.30;99.90
52869;DHT22;39100;53.480;6.158;2022-12-18T11:14:02;-0.30;99.90
52869;DHT22;39100;53.480;6.158;2022-12-18T11:16:32;-0.40;99.90
52869;DHT22;39100;53.480;6.158;2022-12-18T11:19:20;-0.40;99.90
52869;DHT22;39100;53.480;6.158;2022-12-18T11:21:48;-0.40;99.90
52869;DHT22;39100;53.480;6.158;2022-12-18T11:24:39;-0.50;99.90
52869;DHT22;39100;53.480;6.158;2022-12-18T11:27:06;-0.50;99.90
52869;DHT22;39100;53.480;6.158;2022-12-18T11:29:40;-0.40;99.90
52869;DHT22;39100;53.480;6.158;2022-12-18T11:34:49;-0.40;99.90
52869;DHT22;39100;53.480;6.158;2022-12-18T11:37:17;-0.30;99.90
52869;DHT22;39100;53.480;6.158;2022-12-18T11:40:09;-0.30;99.90
52869;DHT22;39100;53.480;6.158;2022-12-18T11:42:51;-0.20;99.90
52869;DHT22;39100;53.480;6.158;2022-12-18T11:45:27;-0.20;99.90
52869;DHT22;39100;53.480;6.158;2022-12-18T11:48:13;-0.10;99.90
52869;DHT22;39100;53.480;6.158;2022-12-18T11:50:51;-0.20;99.90
52869;DHT22;39100;53.480;6.158;2022-12-18T11:53:17;-0.20;99.90
52869;DHT22;39100;53.480;6.158;2022-12-18T11:58:46;-0.20;99.90
52869;DHT22;39100;53.480;6.158;2022-12-18T12:05:02;-0.10;99.90
52869;DHT22;39100;53.480;6.158;2022-12-18T12:23:09;0.00;99.90
52869;DHT22;39100;53.480;6.158;2022-12-18T12:36:17;-0.20;99.90
52869;DHT22;39100;53.480;6.158;2022-12-18T12:38:53;-0.20;99.90
52869;DHT22;39100;53.480;6.158;2022-12-18T12:41:23;-0.10;99.90
52869;DHT22;39100;53.480;6.158;2022-12-18T12:44:14;-0.20;99.90
52869;DHT22;39100;53.480;6.158;2022-12-18T12:46:42;-0.20;99.90
52869;DHT22;39100;53.480;6.158;2022-12-18T12:49:15;-0.20;99.90
52869;DHT22;39100;53.480;6.158;2022-12-18T12:51:45;-0.20;99.90
52869;DHT22;39100;53.480;6.158;2022-12-18T12:54:32;-0.10;99.90
52869;DHT22;39100;53.480;6.158;2022-12-18T12:57:16;-0.10;99.90
52869;DHT22;39100;53.480;6.158;2022-12-18T13:05:53;0.00;99.90
52869;DHT22;39100;53.480;6.158;2022-12-18T13:08:28;0.00;99.90
52869;DHT22;39100;53.480;6.158;2022-12-18T13:10:56;0.10;99.90
52869;DHT22;39100;53.480;6.158;2022-12-18T13:13:50;0.10;99.90
52869;DHT22;39100;53.480;6.158;2022-12-18T13:16:19;0.00;99.90
52869;DHT22;39100;53.480;6.158;2022-12-18T13:18:53;0.00;99.90
52869;DHT22;39100;53.480;6.158;2022-12-18T13:21:32;0.00;99.90
52869;DHT22;39100;53.480;6.158;2022-12-18T13:24:15;0.00;99.90
52869;DHT22;39100;53.480;6.158;2022-12-18T13:26:47;0.00;99.90
52869;DHT22;39100;53.480;6.158;2022-12-18T13:29:43;0.00;99.90
52869;DHT22;39100;53.480;6.158;2022-12-18T13:32:29;0.00;99.90
52869;DHT22;39100;53.480;6.158;2022-12-18T13:37:51;0.00;99.90
52869;DHT22;39100;53.480;6.158;2022-12-18T13:45:47;0.00;99.90
52869;DHT22;39100;53.480;6.158;2022-12-18T13:48:23;0.00;99.90
52869;DHT22;39100;53.480;6.158;2022-12-18T13:51:07;0.00;99.90
52869;DHT22;39100;53.480;6.158;2022-12-18T13:53:42;0.00;99.90
52869;DHT22;39100;53.480;6.158;2022-12-18T13:56:08;0.10;99.90
52869;DHT22;39100;53.480;6.158;2022-12-18T13:58:34;0.10;99.90
52869;DHT22;39100;53.480;6.158;2022-12-18T14:00:59;0.10;99.90
52869;DHT22;39100;53.480;6.158;2022-12-18T14:03:28;0.00;99.90
52869;DHT22;39100;53.480;6.158;2022-12-18T14:06:06;0.10;99.90
52869;DHT22;39100;53.480;6.158;2022-12-18T14:08:37;0.10;99.90
52869;DHT22;39100;53.480;6.158;2022-12-18T14:11:04;0.10;99.90
52869;DHT22;39100;53.480;6.158;2022-12-18T14:13:37;0.10;99.90
52869;DHT22;39100;53.480;6.158;2022-12-18T14:16:06;0.10;99.90
52869;DHT22;39100;53.480;6.158;2022-12-18T14:18:41;0.10;99.90
52869;DHT22;39100;53.480;6.158;2022-12-18T14:23:49;0.10;99.90
52869;DHT22;39100;53.480;6.158;2022-12-18T14:26:29;0.10;99.90
52869;DHT22;39100;53.480;6.158;2022-12-18T14:28:57;0.10;99.90
52869;DHT22;39100;53.480;6.158;2022-12-18T14:31:25;0.10;99.90
52869;DHT22;39100;53.480;6.158;2022-12-18T14:33:51;0.10;99.90
52869;DHT22;39100;53.480;6.158;2022-12-18T14:36:28;0.10;99.90
52869;DHT22;39100;53.480;6.158;2022-12-18T14:38:58;0.10;99.90
52869;DHT22;39100;53.480;6.158;2022-12-18T14:41:25;0.10;99.90
52869;DHT22;39100;53.480;6.158;2022-12-18T14:43:53;0.10;99.90
52869;DHT22;39100;53.480;6.158;2022-12-18T14:46:35;0.10;99.90
52869;DHT22;39100;53.480;6.158;2022-12-18T14:51:48;0.10;99.90
52869;DHT22;39100;53.480;6.158;2022-12-18T14:54:17;0.10;99.90
52869;DHT22;39100;53.480;6.158;2022-12-18T14:56:51;0.20;99.90
52869;DHT22;39100;53.480;6.158;2022-12-18T14:59:21;0.20;99.90
52869;DHT22;39100;53.480;6.158;2022-12-18T15:01:58;0.20;99.90
52869;DHT22;39100;53.480;6.158;2022-12-18T15:04:34;0.20;99.90
52869;DHT22;39100;53.480;6.158;2022-12-18T15:18:00;0.10;99.90
52869;DHT22;39100;53.480;6.158;2022-12-18T15:20:26;0.10;99.90
52869;DHT22;39100;53.480;6.158;2022-12-18T15:22:52;0.10;99.90
52869;DHT22;39100;53.480;6.158;2022-12-18T15:25:32;0.10;99.90
52869;DHT22;39100;53.480;6.158;2022-12-18T15:27:59;0.00;99.90
52869;DHT22;39100;53.480;6.158;2022-12-18T15:30:25;0.10;99.90
52869;DHT22;39100;53.480;6.158;2022-12-18T15:32:52;0.10;99.90
52869;DHT22;39100;53.480;6.158;2022-12-18T15:35:22;0.10;99.90
52869;DHT22;39100;53.480;6.158;2022-12-18T15:37:49;0.00;99.90
52869;DHT22;39100;53.480;6.158;2022-12-18T15:40:20;0.00;99.90
52869;DHT22;39100;53.480;6.158;2022-12-18T15:42:47;0.00;99.90
52869;DHT22;39100;53.480;6.158;2022-12-18T15:45:32;0.00;99.90
52869;DHT22;39100;53.480;6.158;2022-12-18T15:47:58;0.00;99.90
52869;DHT22;39100;53.480;6.158;2022-12-18T15:50:24;0.00;99.90
52869;DHT22;39100;53.480;6.158;2022-12-18T15:52:52;-0.10;99.90
52869;DHT22;39100;53.480;6.158;2022-12-18T15:55:23;-0.10;99.90
52869;DHT22;39100;53.480;6.158;2022-12-18T15:58:09;0.00;99.90
52869;DHT22;39100;53.480;6.158;2022-12-18T16:00:37;-0.10;99.90
52869;DHT22;39100;53.480;6.158;2022-12-18T16:03:04;-0.10;99.90
52869;DHT22;39100;53.480;6.158;2022-12-18T16:05:29;-0.10;99.90
52869;DHT22;39100;53.480;6.158;2022-12-18T16:07:55;-0.20;99.90
52869;DHT22;39100;53.480;6.158;2022-12-18T16:10:21;-0.20;99.90
52869;DHT22;39100;53.480;6.158;2022-12-18T16:12:47;-0.20;99.90
52869;DHT22;39100;53.480;6.158;2022-12-18T16:15:14;-0.20;99.90
52869;DHT22;39100;53.480;6.158;2022-12-18T16:17:41;-0.30;99.90
52869;DHT22;39100;53.480;6.158;2022-12-18T16:20:15;-0.30;99.90
52869;DHT22;39100;53.480;6.158;2022-12-18T16:22:42;-0.30;99.90
52869;DHT22;39100;53.480;6.158;2022-12-18T16:25:23;-0.30;99.90
52869;DHT22;39100;53.480;6.158;2022-12-18T16:27:49;-0.20;99.90
52869;DHT22;39100;53.480;6.158;2022-12-18T16:30:17;-0.30;99.90
52869;DHT22;39100;53.480;6.158;2022-12-18T16:32:43;-0.30;99.90
52869;DHT22;39100;53.480;6.158;2022-12-18T16:35:11;-0.30;99.90
52869;DHT22;39100;53.480;6.158;2022-12-18T16:37:37;-0.40;99.90
52869;DHT22;39100;53.480;6.158;2022-12-18T16:40:03;-0.40;99.90
52869;DHT22;39100;53.480;6.158;2022-12-18T16:42:28;-0.40;99.90
52869;DHT22;39100;53.480;6.158;2022-12-18T16:44:54;-0.50;99.90
52869;DHT22;39100;53.480;6.158;2022-12-18T16:47:19;-0.50;99.90
52869;DHT22;39100;53.480;6.158;2022-12-18T16:49:45;-0.40;99.90
52869;DHT22;39100;53.480;6.158;2022-12-18T16:52:11;-0.40;99.90
52869;DHT22;39100;53.480;6.158;2022-12-18T16:54:37;-0.40;99.90
52869;DHT22;39100;53.480;6.158;2022-12-18T16:57:03;-0.50;99.90
52869;DHT22;39100;53.480;6.158;2022-12-18T16:59:29;-0.40;99.90
52869;DHT22;39100;53.480;6.158;2022-12-18T17:01:55;-0.40;99.90
52869;DHT22;39100;53.480;6.158;2022-12-18T17:04:21;-0.40;99.90
52869;DHT22;39100;53.480;6.158;2022-12-18T17:06:47;-0.40;99.90
52869;DHT22;39100;53.480;6.158;2022-12-18T17:09:17;-0.30;99.90
52869;DHT22;39100;53.480;6.158;2022-12-18T17:11:43;-0.30;99.90
52869;DHT22;39100;53.480;6.158;2022-12-18T17:14:14;-0.30;99.90
52869;DHT22;39100;53.480;6.158;2022-12-18T17:16:40;-0.30;99.90
52869;DHT22;39100;53.480;6.158;2022-12-18T17:19:06;-0.20;99.90
52869;DHT22;39100;53.480;6.158;2022-12-18T17:21:32;-0.20;99.90
52869;DHT22;39100;53.480;6.158;2022-12-18T17:24:01;-0.20;99.90
52869;DHT22;39100;53.480;6.158;2022-12-18T17:26:26;-0.20;99.90
52869;DHT22;39100;53.480;6.158;2022-12-18T17:28:52;-0.20;99.90
52869;DHT22;39100;53.480;6.158;2022-12-18T17:31:21;-0.20;99.90
52869;DHT22;39100;53.480;6.158;2022-12-18T17:33:49;-0.20;99.90